Time;durP1;ratioP1;P1;durP2;ratioP2;P2;SDS_P1;SDS_P2;PMS_P1;PMS_P2;Temp;Humidity;BMP_temperature;BMP_pressure;BME280_temperature;BME280_humidity;BME280_pressure;Samples;Min_cycle;Max_cycle;Signal;HPM_P1;HPM_P2
2020/12/13 00:00:09;;;;;;;17.25;11.80;;;;;;;0.78;74.61;100600.56;1702847;82;21194;-45
2020/12/13 00:02:37;;;;;;;18.12;11.63;;;;;;;0.78;74.67;100606.23;1689948;82;21217;-46
2020/12/13 00:05:05;;;;;;;16.82;11.03;;;;;;;0.78;74.68;100600.98;1723862;81;21190;-47
2020/12/13 00:07:34;;;;;;;18.05;11.57;;;;;;;0.80;74.69;100601.83;1725272;81;21154;-47
2020/12/13 00:10:02;;;;;;;23.02;13.03;;;;;;;0.84;74.66;100608.77;1721715;81;21181;-47
2020/12/13 00:12:30;;;;;;;20.40;12.53;;;;;;;0.83;74.58;100605.71;1726483;81;21850;-44
2020/12/13 00:14:58;;;;;;;20.27;11.95;;;;;;;0.84;74.62;100608.77;1722516;81;21215;-44
2020/12/13 00:17:25;;;;;;;20.35;11.12;;;;;;;0.84;74.66;100603.52;1719137;81;21625;-45
2020/12/13 00:19:53;;;;;;;17.55;10.85;;;;;;;0.88;74.77;100612.20;1701308;81;21165;-47
2020/12/13 00:22:21;;;;;;;19.15;11.15;;;;;;;0.93;74.61;100613.86;1719659;81;21183;-45
2020/12/13 00:24:48;;;;;;;24.63;14.30;;;;;;;0.96;74.58;100620.81;1720343;81;21929;-49
2020/12/13 00:27:16;;;;;;;20.65;13.00;;;;;;;0.95;74.51;100614.70;1729091;81;21578;-44
2020/12/13 00:29:43;;;;;;;18.50;12.07;;;;;;;0.96;74.53;100621.70;1685620;83;21137;-46
2020/12/13 00:32:11;;;;;;;19.67;11.55;;;;;;;0.96;74.74;100618.19;1686859;83;21196;-46
2020/12/13 00:34:38;;;;;;;16.30;11.60;;;;;;;0.97;74.64;100611.61;1686983;83;21149;-45
2020/12/13 00:37:06;;;;;;;17.07;10.82;;;;;;;1.00;74.52;100613.31;1696538;83;21165;-45
2020/12/13 00:39:34;;;;;;;22.22;12.33;;;;;;;1.00;74.62;100612.00;1712161;81;21214;-45
2020/12/13 00:42:02;;;;;;;18.77;11.60;;;;;;;1.01;74.71;100611.98;1722285;82;21499;-45
2020/12/13 00:44:29;;;;;;;17.17;11.18;;;;;;;1.02;74.70;100611.08;1689008;83;21144;-45
2020/12/13 00:46:57;;;;;;;17.62;11.12;;;;;;;1.03;74.55;100611.52;1709971;82;21180;-44
2020/12/13 00:49:25;;;;;;;15.15;11.10;;;;;;;1.02;74.60;100603.66;1727729;81;21164;-44
2020/12/13 00:52:02;;;;;;;19.23;10.90;;;;;;;1.03;74.57;100605.38;1717601;82;21188;-47
2020/12/13 00:54:30;;;;;;;14.23;10.68;;;;;;;1.04;74.63;100607.13;1701926;81;21149;-47
2020/12/13 00:56:58;;;;;;;14.80;11.33;;;;;;;1.04;74.59;100605.36;1695198;83;21150;-47
2020/12/13 00:59:26;;;;;;;16.25;11.50;;;;;;;1.05;74.62;100601.83;1688619;83;21182;-47
2020/12/13 01:01:53;;;;;;;16.45;10.58;;;;;;;1.06;74.68;100602.72;1697535;82;21181;-49
2020/12/13 01:04:21;;;;;;;13.13;9.48;;;;;;;1.07;74.66;100599.19;1694215;83;21584;-44
2020/12/13 01:06:49;;;;;;;13.20;9.38;;;;;;;1.06;74.60;100587.82;1703746;83;21169;-46
2020/12/13 01:09:17;;;;;;;14.65;9.90;;;;;;;1.06;74.67;100597.02;1697759;83;21185;-44
2020/12/13 01:11:44;;;;;;;14.93;9.90;;;;;;;1.09;74.74;100594.78;1719802;81;22089;-46
2020/12/13 01:14:11;;;;;;;14.53;9.48;;;;;;;1.10;74.71;100593.02;1679752;83;21157;-45
2020/12/13 01:16:39;;;;;;;11.65;8.35;;;;;;;1.11;74.69;100590.38;1676253;83;21156;-44
2020/12/13 01:19:06;;;;;;;15.78;8.95;;;;;;;1.13;74.71;100595.12;1689603;83;21197;-45
2020/12/13 01:21:34;;;;;;;12.58;9.55;;;;;;;1.16;74.63;100581.96;1681911;83;21176;-46
2020/12/13 01:24:01;;;;;;;14.05;10.13;;;;;;;1.14;74.64;100578.94;1697719;83;21445;-45
2020/12/13 01:26:29;;;;;;;11.43;7.72;;;;;;;1.16;74.68;100583.27;1716957;81;21156;-44
2020/12/13 01:28:56;;;;;;;12.33;8.28;;;;;;;1.17;74.69;100577.56;1676430;83;21194;-44
2020/12/13 01:31:24;;;;;;;11.50;8.38;;;;;;;1.17;74.72;100577.11;1709660;82;21129;-44
2020/12/13 01:33:52;;;;;;;13.35;8.40;;;;;;;1.20;74.72;100579.67;1717213;82;21178;-45
2020/12/13 01:36:22;;;;;;;9.60;7.22;;;;;;;1.22;74.71;100571.32;1695758;82;21236;-45
2020/12/13 01:38:51;;;;;;;12.33;8.60;;;;;;;1.23;74.70;100566.47;1708941;82;21176;-45
2020/12/13 01:41:18;;;;;;;11.78;8.25;;;;;;;1.25;74.69;100567.31;1725645;81;21126;-44
2020/12/13 01:43:56;;;;;;;12.03;8.20;;;;;;;1.28;74.72;100567.70;1696416;83;21177;-47
2020/12/13 01:46:24;;;;;;;11.15;7.70;;;;;;;1.31;74.74;100570.30;1725413;81;21177;-48
2020/12/13 01:48:59;;;;;;;12.10;8.43;;;;;;;1.32;74.71;100562.83;1699318;81;21196;-45
2020/12/13 01:52:05;;;;;;;11.30;7.65;;;;;;;1.34;74.69;100572.87;1711276;81;21177;-49
2020/12/13 01:54:20;;;;;;;12.95;8.10;;;;;;;1.36;74.80;100577.65;1702813;82;21183;-47
2020/12/13 01:56:54;;;;;;;16.45;10.28;;;;;;;1.38;74.79;100568.41;1694767;82;21637;-48
2020/12/13 01:59:24;;;;;;;12.80;8.58;;;;;;;1.38;74.85;100569.72;1706231;82;21186;-46
2020/12/13 02:01:57;;;;;;;12.18;8.90;;;;;;;1.39;74.83;100566.21;1700846;82;21215;-44
2020/12/13 02:04:27;;;;;;;13.58;9.05;;;;;;;1.41;74.88;100573.17;1692066;82;21260;-46
2020/12/13 02:06:54;;;;;;;12.75;8.60;;;;;;;1.41;75.05;100569.23;1706893;82;21205;-46
2020/12/13 02:09:23;;;;;;;14.80;9.58;;;;;;;1.45;75.07;100564.31;1704833;82;21614;-46
2020/12/13 02:11:53;;;;;;;13.53;10.20;;;;;;;1.47;75.04;100566.47;1704958;82;21185;-46
2020/12/13 02:14:21;;;;;;;12.95;9.33;;;;;;;1.49;75.03;100560.73;1717435;81;21137;-44
2020/12/13 02:16:50;;;;;;;13.53;9.83;;;;;;;1.47;75.00;100561.66;1696893;83;21182;-44
2020/12/13 02:19:19;;;;;;;16.35;10.08;;;;;;;1.46;75.04;100567.38;1695107;83;21179;-44
2020/12/13 02:21:51;;;;;;;14.87;9.30;;;;;;;1.46;75.04;100565.17;1706314;83;21140;-43
2020/12/13 02:24:19;;;;;;;12.33;8.53;;;;;;;1.47;75.12;100565.61;1721262;81;21157;-44
2020/12/13 02:26:47;;;;;;;12.50;8.45;;;;;;;1.48;75.08;100556.36;1720241;81;21164;-46
2020/12/13 02:29:15;;;;;;;14.33;9.05;;;;;;;1.49;75.17;100562.05;1699746;83;21160;-43
2020/12/13 02:31:43;;;;;;;15.65;9.95;;;;;;;1.51;75.15;100563.31;1721651;81;21160;-46
2020/12/13 02:34:11;;;;;;;15.28;10.20;;;;;;;1.51;75.22;100568.15;1706451;81;21163;-44
2020/12/13 02:36:38;;;;;;;15.40;10.68;;;;;;;1.54;75.21;100571.16;1706978;81;21736;-46
2020/12/13 02:39:06;;;;;;;13.85;9.28;;;;;;;1.56;75.16;100567.17;1726469;81;21200;-47
2020/12/13 02:41:34;;;;;;;13.50;8.68;;;;;;;1.57;75.14;100575.49;1718759;81;21155;-49
2020/12/13 02:44:01;;;;;;;14.00;8.83;;;;;;;1.58;75.19;100578.07;1723312;81;21160;-44
2020/12/13 02:46:29;;;;;;;12.93;8.45;;;;;;;1.59;75.22;100576.30;1719185;81;21619;-44
2020/12/13 02:48:56;;;;;;;12.75;9.60;;;;;;;1.60;75.34;100571.03;1697686;82;21663;-44
2020/12/13 02:51:24;;;;;;;12.85;9.13;;;;;;;1.62;75.27;100577.13;1722841;81;21141;-48
2020/12/13 02:53:52;;;;;;;11.48;8.60;;;;;;;1.60;75.32;100572.34;1690060;83;21316;-44
2020/12/13 02:56:20;;;;;;;14.87;9.28;;;;;;;1.64;75.49;100577.97;1687017;83;21187;-45
2020/12/13 02:58:48;;;;;;;15.60;9.63;;;;;;;1.68;75.32;100576.98;1694498;83;22107;-47
2020/12/13 03:01:15;;;;;;;11.50;8.68;;;;;;;1.69;75.24;100581.83;1679001;83;21169;-45
2020/12/13 03:03:43;;;;;;;12.43;8.65;;;;;;;1.68;75.23;100584.02;1683755;83;21219;-43
2020/12/13 03:06:11;;;;;;;12.35;8.85;;;;;;;1.70;75.28;100583.55;1689469;82;21141;-46
2020/12/13 03:08:38;;;;;;;13.50;8.95;;;;;;;1.74;75.30;100581.28;1699487;83;21620;-47
2020/12/13 03:11:05;;;;;;;11.10;8.08;;;;;;;1.80;75.31;100581.14;1684551;83;21206;-45
2020/12/13 03:13:33;;;;;;;12.88;9.83;;;;;;;1.81;75.34;100572.80;1681659;83;21645;-45
2020/12/13 03:16:00;;;;;;;11.33;8.63;;;;;;;1.81;75.36;100569.70;1674605;84;21158;-44
2020/12/13 03:18:28;;;;;;;11.38;8.60;;;;;;;1.83;75.51;100557.86;1691383;83;21160;-46
2020/12/13 03:20:56;;;;;;;11.50;8.48;;;;;;;1.86;75.47;100561.73;1686676;83;21183;-44
2020/12/13 03:23:23;;;;;;;12.33;8.73;;;;;;;1.91;75.54;100554.15;1689944;82;21185;-43
2020/12/13 03:25:52;;;;;;;12.65;7.47;;;;;;;1.92;75.50;100555.90;1684611;83;21199;-47
2020/12/13 03:28:19;;;;;;;10.63;7.22;;;;;;;1.92;75.56;100547.15;1681398;83;21705;-48
2020/12/13 03:30:47;;;;;;;10.80;7.10;;;;;;;1.94;75.66;100542.69;1696862;83;22058;-44
2020/12/13 03:33:14;;;;;;;10.00;7.53;;;;;;;1.97;75.64;100546.59;1679002;83;21144;-49
2020/12/13 03:35:42;;;;;;;10.23;8.00;;;;;;;2.00;75.62;100545.66;1685971;83;21712;-49
2020/12/13 03:38:09;;;;;;;10.78;5.60;;;;;;;2.02;75.63;100546.50;1688649;83;21184;-44
2020/12/13 03:40:37;;;;;;;8.88;6.50;;;;;;;2.05;75.63;100547.73;1682500;83;21165;-43
2020/12/13 03:43:04;;;;;;;9.80;7.12;;;;;;;2.07;75.61;100552.52;1675978;83;21603;-45
2020/12/13 03:45:32;;;;;;;9.70;7.28;;;;;;;2.07;75.65;100552.06;1691636;83;21208;-47
2020/12/13 03:47:59;;;;;;;10.15;7.75;;;;;;;2.08;75.64;100559.05;1687820;83;21189;-47
2020/12/13 03:50:38;;;;;;;9.80;7.00;;;;;;;2.11;75.62;100566.86;1690789;83;21178;-49
2020/12/13 03:52:56;;;;;;;8.83;6.62;;;;;;;2.10;75.67;100564.28;1689777;83;21181;-48
2020/12/13 03:55:24;;;;;;;9.10;6.75;;;;;;;2.11;75.68;100565.55;1722555;81;21306;-42
2020/12/13 03:57:53;;;;;;;10.75;7.87;;;;;;;2.12;75.72;100568.62;1696623;82;21151;-41
2020/12/13 04:00:20;;;;;;;11.80;7.83;;;;;;;2.13;75.77;100572.96;1708625;82;21182;-43
2020/12/13 04:02:48;;;;;;;11.03;8.85;;;;;;;2.15;75.81;100571.17;1699100;82;21772;-42
2020/12/13 04:05:15;;;;;;;9.63;7.53;;;;;;;2.18;75.79;100568.06;1684732;83;21150;-41
2020/12/13 04:07:43;;;;;;;11.53;9.03;;;;;;;2.19;75.85;100569.32;1691563;82;21171;-41
2020/12/13 04:10:10;;;;;;;11.05;8.15;;;;;;;2.21;75.87;100568.84;1684133;83;21207;-43
2020/12/13 04:12:38;;;;;;;10.03;8.28;;;;;;;2.25;75.86;100565.25;1700018;82;21178;-44
2020/12/13 04:15:05;;;;;;;12.00;7.60;;;;;;;2.27;75.82;100560.83;1697174;82;21182;-46
2020/12/13 04:17:33;;;;;;;10.93;8.45;;;;;;;2.26;75.86;100560.39;1708508;82;21186;-45
2020/12/13 04:20:00;;;;;;;12.98;8.80;;;;;;;2.27;75.85;100562.56;1699121;82;21648;-47
2020/12/13 04:22:28;;;;;;;15.40;9.65;;;;;;;2.28;75.86;100563.00;1701447;82;21164;-47
2020/12/13 04:24:55;;;;;;;12.58;8.88;;;;;;;2.31;75.89;100561.15;1706548;82;21159;-44
2020/12/13 04:27:23;;;;;;;14.43;9.60;;;;;;;2.32;75.86;100568.16;1701512;82;21883;-44
2020/12/13 04:29:52;;;;;;;13.93;10.58;;;;;;;2.33;75.95;100568.56;1707249;82;21189;-48
2020/12/13 04:32:19;;;;;;;18.87;12.65;;;;;;;2.36;76.04;100574.20;1692732;82;21762;-44
2020/12/13 04:34:48;;;;;;;18.12;11.53;;;;;;;2.37;76.05;100570.23;1709888;82;21202;-48
2020/12/13 04:37:15;;;;;;;19.35;12.63;;;;;;;2.39;76.08;100583.34;1703895;82;21675;-45
2020/12/13 04:39:43;;;;;;;20.55;13.65;;;;;;;2.41;76.11;100582.86;1702941;82;21343;-44
2020/12/13 04:42:10;;;;;;;18.82;13.60;;;;;;;2.42;76.12;100581.09;1708537;82;21138;-45
2020/12/13 04:44:38;;;;;;;23.38;14.90;;;;;;;2.42;76.15;100575.41;1700821;82;21141;-44
2020/12/13 04:47:07;;;;;;;19.37;13.58;;;;;;;2.42;76.29;100575.41;1689205;82;21196;-44
2020/12/13 04:49:35;;;;;;;22.80;14.95;;;;;;;2.44;76.29;100574.03;1695406;82;21201;-44
2020/12/13 04:52:03;;;;;;;19.30;14.03;;;;;;;2.45;76.27;100578.41;1696198;82;21327;-44
2020/12/13 04:54:31;;;;;;;20.37;14.65;;;;;;;2.46;76.26;100574.86;1726903;81;21519;-48
2020/12/13 04:56:59;;;;;;;22.30;14.87;;;;;;;2.47;76.26;100573.95;1698675;83;21652;-46
2020/12/13 04:59:27;;;;;;;24.98;16.42;;;;;;;2.49;76.42;100573.47;1705487;83;21147;-46
2020/12/13 05:01:54;;;;;;;26.40;16.02;;;;;;;2.50;76.31;100579.17;1685158;83;21198;-46
2020/12/13 05:04:22;;;;;;;25.97;16.52;;;;;;;2.51;76.33;100578.25;1697456;83;21634;-45
2020/12/13 05:06:50;;;;;;;23.27;16.52;;;;;;;2.51;76.37;100579.11;1701529;83;21165;-45
2020/12/13 05:09:17;;;;;;;24.95;16.45;;;;;;;2.54;76.44;100575.54;1704120;82;21252;-46
2020/12/13 05:11:46;;;;;;;28.10;15.38;;;;;;;2.56;76.42;100568.48;1671150;82;21354;-46
2020/12/13 05:14:13;;;;;;;27.98;17.10;;;;;;;2.59;76.41;100571.89;1698807;82;21199;-45
2020/12/13 05:16:41;;;;;;;27.82;17.15;;;;;;;2.59;76.42;100565.77;1687961;82;21183;-45
2020/12/13 05:19:09;;;;;;;29.60;18.05;;;;;;;2.58;76.47;100571.48;1698473;82;21177;-43
2020/12/13 05:21:38;;;;;;;26.93;17.17;;;;;;;2.59;76.50;100563.98;1697955;82;21130;-41
2020/12/13 05:24:06;;;;;;;31.70;16.40;;;;;;;2.62;76.51;100564.83;1668756;84;21195;-43
2020/12/13 05:26:33;;;;;;;23.95;15.85;;;;;;;2.64;76.49;100566.52;1700408;82;21172;-42
2020/12/13 05:29:03;;;;;;;22.52;15.25;;;;;;;2.66;76.40;100562.08;1706788;82;21212;-44
2020/12/13 05:31:32;;;;;;;25.50;17.07;;;;;;;2.67;76.46;100558.56;1668246;84;21183;-45
2020/12/13 05:34:03;;;;;;;24.37;15.50;;;;;;;2.71;76.51;100563.29;1711057;81;21170;-43
2020/12/13 05:36:32;;;;;;;25.92;15.48;;;;;;;2.74;76.43;100564.06;1686900;83;21927;-43
2020/12/13 05:38:59;;;;;;;23.50;15.05;;;;;;;2.75;76.35;100564.50;1725385;81;21160;-42
2020/12/13 05:41:33;;;;;;;26.42;15.13;;;;;;;2.77;76.31;100567.07;1711239;82;22039;-43
2020/12/13 05:47:05;;;;;;;23.85;14.83;;;;;;;2.75;76.26;100580.30;1784268;79;21101;-43
2020/12/13 05:52:06;;;;;;;;;;;;;;;2.79;76.18;100577.98;1777180;80;21569;-47
2020/12/13 05:54:34;;;;;;;18.82;11.93;;;;;;;2.79;76.15;100575.34;1779807;79;20178;-44
2020/12/13 05:57:03;;;;;;;21.65;12.63;;;;;;;2.79;76.10;100577.13;1777421;79;21141;-47
2020/12/13 05:59:31;;;;;;;20.55;12.93;;;;;;;2.77;76.14;100575.87;1770503;80;21147;-44
2020/12/13 06:02:00;;;;;;;21.15;13.80;;;;;;;2.78;76.09;100576.72;1777361;80;21223;-45
2020/12/13 06:04:29;;;;;;;22.98;13.45;;;;;;;2.79;76.12;100570.54;1718967;81;21142;-46
2020/12/13 06:09:41;;;;;;;17.98;12.60;;;;;;;2.87;76.13;100573.84;1765223;79;22948;-45
2020/12/13 06:12:12;;;;;;;20.32;13.65;;;;;;;2.86;76.07;100572.58;1676210;83;21175;-45
2020/12/13 06:14:43;;;;;;;23.47;14.43;;;;;;;2.87;76.03;100575.61;1735664;80;21145;-45
2020/12/13 06:17:11;;;;;;;26.02;14.65;;;;;;;2.87;76.03;100576.94;1739585;80;21149;-44
2020/12/13 06:19:39;;;;;;;20.68;12.53;;;;;;;2.86;76.01;100576.53;1742453;80;21303;-45
2020/12/13 06:22:11;;;;;;;19.57;12.65;;;;;;;2.86;75.99;100579.17;1737447;81;21569;-46
2020/12/13 06:24:39;;;;;;;19.23;12.85;;;;;;;2.87;75.98;100571.66;1689354;81;21149;-47
2020/12/13 06:27:06;;;;;;;20.10;13.48;;;;;;;2.88;76.02;100575.59;1743074;80;21137;-48
2020/12/13 06:29:33;;;;;;;24.57;16.00;;;;;;;2.90;76.01;100568.94;1716675;81;21185;-46
2020/12/13 06:32:01;;;;;;;20.45;13.93;;;;;;;2.93;76.06;100575.48;1739232;80;21477;-45
2020/12/13 06:34:30;;;;;;;24.23;15.78;;;;;;;2.94;76.05;100570.61;1734982;80;21157;-45
2020/12/13 06:36:57;;;;;;;22.58;14.28;;;;;;;2.96;75.99;100574.08;1737513;81;21132;-46
2020/12/13 06:39:26;;;;;;;23.80;15.23;;;;;;;2.94;75.99;100576.73;1737522;81;21621;-47
2020/12/13 06:41:55;;;;;;;23.62;15.72;;;;;;;2.95;75.99;100570.58;1706269;81;21145;-45
2020/12/13 06:44:23;;;;;;;26.68;16.48;;;;;;;2.97;75.98;100570.52;1734931;81;21474;-45
2020/12/13 06:46:50;;;;;;;24.92;16.67;;;;;;;2.97;75.95;100567.47;1738820;80;21428;-44
2020/12/13 06:49:18;;;;;;;26.80;18.02;;;;;;;2.97;75.97;100574.05;1741958;80;21181;-44
2020/12/13 06:51:47;;;;;;;30.82;16.90;;;;;;;2.97;75.98;100570.52;1738401;80;21255;-44
2020/12/13 06:54:16;;;;;;;25.25;17.42;;;;;;;3.01;76.00;100572.19;1735760;80;21121;-44
2020/12/13 06:56:46;;;;;;;26.75;18.98;;;;;;;3.04;75.92;100578.23;1740255;80;21964;-44
2020/12/13 06:59:14;;;;;;;30.08;19.20;;;;;;;3.06;75.85;100572.93;1739783;80;21871;-45
2020/12/13 07:01:43;;;;;;;29.87;18.95;;;;;;;3.06;75.83;100579.98;1740598;80;21589;-46
2020/12/13 07:04:27;;;;;;;33.63;20.97;;;;;;;3.06;75.85;100580.84;1714104;81;21198;-45
2020/12/13 07:06:58;;;;;;;33.25;20.27;;;;;;;3.06;75.82;100579.52;1719622;81;21188;-44
2020/12/13 07:09:25;;;;;;;38.00;19.92;;;;;;;3.06;75.82;100580.84;1704380;82;21169;-44
2020/12/13 07:11:53;;;;;;;32.53;20.72;;;;;;;3.07;75.79;100585.65;1648191;85;21491;-45
2020/12/13 07:14:26;;;;;;;37.13;23.00;;;;;;;3.07;75.81;100593.09;1716637;82;21149;-45
2020/12/13 07:17:03;;;;;;;40.88;23.40;;;;;;;3.08;75.80;100588.72;1708782;82;21664;-46
2020/12/13 07:19:32;;;;;;;37.67;20.60;;;;;;;3.06;75.78;100586.11;1718025;83;21530;-45
2020/12/13 07:22:06;;;;;;;34.58;20.80;;;;;;;3.02;75.75;100579.17;1715439;82;21149;-42
2020/12/13 07:24:34;;;;;;;32.88;19.45;;;;;;;2.99;75.80;100580.58;1717475;82;21158;-41
2020/12/13 07:27:02;;;;;;;35.88;21.42;;;;;;;2.96;75.86;100580.66;1708065;82;21137;-42
2020/12/13 07:29:31;;;;;;;34.35;21.48;;;;;;;2.94;75.98;100585.09;1716412;82;21114;-43
2020/12/13 07:32:02;;;;;;;36.03;21.55;;;;;;;2.91;76.03;100589.14;1717058;82;21140;-46
2020/12/13 07:34:30;;;;;;;36.98;20.25;;;;;;;2.90;76.07;100593.97;1717827;82;21538;-45
2020/12/13 07:36:59;;;;;;;33.48;17.42;;;;;;;2.89;76.14;100594.43;1716927;82;21561;-47
2020/12/13 07:39:29;;;;;;;32.10;19.17;;;;;;;2.87;76.14;100595.38;1706555;82;21161;-44
2020/12/13 07:41:56;;;;;;;34.27;21.23;;;;;;;2.88;76.20;100599.75;1714996;82;21135;-45
2020/12/13 07:44:25;;;;;;;35.38;20.10;;;;;;;2.86;76.23;100598.47;1670543;83;21593;-44
2020/12/13 07:46:52;;;;;;;29.75;20.08;;;;;;;2.86;76.28;100602.87;1712691;82;21157;-46
2020/12/13 07:49:21;;;;;;;37.00;20.30;;;;;;;2.87;76.30;100604.59;1718851;82;21476;-46
2020/12/13 07:51:53;;;;;;;29.40;19.17;;;;;;;2.87;76.30;100599.33;1714799;82;21680;-45
2020/12/13 07:54:30;;;;;;;32.73;19.20;;;;;;;2.86;76.32;100598.47;1717614;82;21133;-45
2020/12/13 07:57:00;;;;;;;31.10;19.85;;;;;;;2.85;76.35;100608.60;1716964;82;21177;-45
2020/12/13 07:59:28;;;;;;;28.38;18.90;;;;;;;2.84;76.39;100605.99;1709684;82;21482;-43
2020/12/13 08:01:59;;;;;;;35.92;19.20;;;;;;;2.83;76.46;100609.55;1713865;82;21153;-44
2020/12/13 08:04:34;;;;;;;;;;;;;;;2.83;76.48;100602.95;1717247;82;21680;-44
2020/12/13 08:07:04;;;;;;;30.32;17.85;;;;;;;2.85;76.48;100613.87;1646534;85;20195;-46
2020/12/13 08:09:32;;;;;;;27.73;17.80;;;;;;;2.86;76.43;100609.00;1697497;83;21166;-50
2020/12/13 08:12:00;;;;;;;30.05;18.75;;;;;;;2.86;76.49;100610.31;1701862;82;21115;-48
2020/12/13 08:14:27;;;;;;;30.37;19.07;;;;;;;2.92;76.53;100608.84;1692844;83;21177;-44
2020/12/13 08:16:57;;;;;;;31.82;20.60;;;;;;;2.93;76.44;100613.22;1696382;83;21158;-47
2020/12/13 08:19:37;;;;;;;27.65;17.98;;;;;;;2.95;76.42;100606.61;1695994;82;21129;-48
2020/12/13 08:22:11;;;;;;;32.17;19.67;;;;;;;2.96;76.37;100613.59;1695630;84;21159;-44
2020/12/13 08:24:39;;;;;;;29.65;19.87;;;;;;;2.93;76.35;100610.59;1680544;84;21146;-46
2020/12/13 08:27:06;;;;;;;31.33;21.25;;;;;;;2.92;76.36;100616.74;1696954;82;21114;-48
2020/12/13 08:29:34;;;;;;;31.87;20.25;;;;;;;2.91;76.37;100615.02;1692608;82;21161;-46
2020/12/13 08:32:15;;;;;;;31.62;19.02;;;;;;;2.90;76.43;100611.98;1680220;83;21158;-45
2020/12/13 08:34:43;;;;;;;28.40;17.30;;;;;;;2.90;76.45;100601.45;1640549;85;21170;-45
2020/12/13 08:37:11;;;;;;;32.25;18.85;;;;;;;2.91;76.41;100600.98;1631940;86;21215;-47
2020/12/13 08:39:38;;;;;;;21.20;15.98;;;;;;;2.91;76.47;100595.72;1706571;82;22333;-46
2020/12/13 08:42:06;;;;;;;26.45;17.75;;;;;;;2.91;76.45;100602.31;1693724;83;21284;-48
2020/12/13 08:44:40;;;;;;;26.37;17.62;;;;;;;2.87;76.45;100603.27;1694662;83;21158;-49
2020/12/13 08:47:09;;;;;;;24.10;14.98;;;;;;;2.84;76.47;100604.22;1693602;82;21130;-47
2020/12/13 08:49:39;;;;;;;24.57;17.03;;;;;;;2.82;76.55;100599.44;1695305;82;21145;-51
2020/12/13 08:52:30;;;;;;;25.10;16.62;;;;;;;2.85;76.58;100602.44;1696594;82;21150;-48
2020/12/13 08:55:04;;;;;;;22.93;15.60;;;;;;;2.83;76.60;100599.86;1693762;82;21126;-49
2020/12/13 08:57:37;;;;;;;23.12;16.20;;;;;;;2.84;76.64;100594.14;1693336;82;21130;-46
2020/12/13 09:00:15;;;;;;;20.50;12.75;;;;;;;2.84;76.63;100585.78;1699975;82;21119;-47
2020/12/13 09:03:02;;;;;;;20.57;13.15;;;;;;;2.83;76.61;100582.74;1696243;82;21138;-52
2020/12/13 09:05:32;;;;;;;22.17;14.68;;;;;;;2.84;76.68;100586.23;1694784;82;21570;-49
2020/12/13 09:08:00;;;;;;;23.87;16.35;;;;;;;2.81;76.65;100577.50;1695730;82;21169;-48
2020/12/13 09:10:31;;;;;;;23.27;17.87;;;;;;;2.81;76.71;100580.13;1696963;82;21171;-47
2020/12/13 09:13:06;;;;;;;20.40;13.58;;;;;;;2.81;76.71;100570.05;1677808;84;21174;-48
2020/12/13 09:15:33;;;;;;;22.42;14.35;;;;;;;2.81;76.76;100568.74;1694200;82;21190;-47
2020/12/13 09:18:02;;;;;;;22.67;14.78;;;;;;;2.81;76.73;100572.23;1693888;82;21178;-47
2020/12/13 09:20:34;;;;;;;23.07;15.55;;;;;;;2.82;76.72;100573.09;1691081;82;21169;-49
2020/12/13 09:23:05;;;;;;;23.70;16.12;;;;;;;2.80;76.70;100570.97;1690142;82;21562;-54
2020/12/13 09:25:42;;;;;;;22.30;15.48;;;;;;;2.80;76.70;100567.02;1698425;82;21193;-48
2020/12/13 09:28:11;;;;;;;19.52;13.62;;;;;;;2.79;76.74;100567.45;1700665;82;21130;-48
2020/12/13 09:30:38;;;;;;;23.60;16.02;;;;;;;2.79;76.75;100567.45;1699526;82;21558;-48
2020/12/13 09:33:06;;;;;;;25.80;16.50;;;;;;;2.80;76.76;100565.25;1695032;82;21130;-49
2020/12/13 09:35:33;;;;;;;25.45;16.50;;;;;;;2.81;76.73;100559.52;1698538;82;21182;-48
2020/12/13 09:38:03;;;;;;;23.45;15.90;;;;;;;2.82;76.70;100566.50;1699471;82;21130;-48
2020/12/13 09:40:32;;;;;;;20.80;14.83;;;;;;;2.81;76.71;100559.52;1692641;84;21138;-48
2020/12/13 09:43:00;;;;;;;21.82;15.15;;;;;;;2.79;76.72;100556.05;1696920;82;21268;-46
2020/12/13 09:45:28;;;;;;;22.20;14.98;;;;;;;2.77;76.75;100555.22;1663706;84;21630;-47
2020/12/13 09:47:57;;;;;;;24.07;16.30;;;;;;;2.77;76.83;100556.54;1666200;85;21977;-49
2020/12/13 09:50:28;;;;;;;23.25;16.52;;;;;;;2.77;76.82;100550.84;1667300;84;21182;-47
2020/12/13 09:52:55;;;;;;;26.90;17.77;;;;;;;2.79;76.79;100548.16;1663364;86;21165;-47
2020/12/13 09:55:24;;;;;;;23.15;14.83;;;;;;;2.79;76.74;100542.42;1656638;84;21605;-46
2020/12/13 09:57:51;;;;;;;23.77;16.62;;;;;;;2.79;76.72;100545.06;1657921;84;21170;-45
2020/12/13 10:00:32;;;;;;;24.23;15.98;;;;;;;2.78;76.75;100539.85;1660797;84;21194;-45
2020/12/13 10:03:06;;;;;;;24.12;16.30;;;;;;;2.75;76.73;100536.84;1654694;84;21223;-48
2020/12/13 10:05:40;;;;;;;20.77;15.00;;;;;;;2.74;76.75;100533.78;1653899;84;21180;-46
2020/12/13 10:10:49;;;;;;;24.43;16.07;;;;;;;2.78;76.74;100531.48;1663806;85;21606;-48
2020/12/13 10:13:17;;;;;;;25.92;17.25;;;;;;;2.79;76.81;100520.50;1674342;84;21173;-45
2020/12/13 10:15:44;;;;;;;26.77;17.70;;;;;;;2.81;76.94;100526.59;1665028;84;21635;-48
2020/12/13 10:18:12;;;;;;;22.13;15.38;;;;;;;2.83;76.78;100526.56;1646664;85;21144;-47
2020/12/13 10:20:40;;;;;;;24.87;15.72;;;;;;;2.84;76.72;100527.83;1678461;84;21125;-46
2020/12/13 10:23:08;;;;;;;23.57;15.80;;;;;;;2.84;76.68;100527.83;1674619;84;21153;-44
2020/12/13 10:25:35;;;;;;;27.37;15.05;;;;;;;2.85;76.67;100522.09;1667740;85;21162;-50
2020/12/13 10:28:03;;;;;;;21.70;15.70;;;;;;;2.83;76.67;100516.89;1672720;84;21141;-45
2020/12/13 10:30:31;;;;;;;25.50;16.75;;;;;;;2.84;76.67;100522.55;1671146;84;21169;-46
2020/12/13 10:32:58;;;;;;;23.12;15.00;;;;;;;2.84;76.65;100522.55;1648718;86;21133;-46
2020/12/13 10:35:26;;;;;;;23.07;14.45;;;;;;;2.86;76.62;100530.44;1659603;85;21566;-45
2020/12/13 10:37:54;;;;;;;22.50;13.60;;;;;;;2.87;76.59;100536.96;1660439;84;21298;-45
2020/12/13 10:40:21;;;;;;;22.93;14.47;;;;;;;2.87;76.55;100528.20;1668203;84;21139;-46
2020/12/13 10:42:49;;;;;;;24.43;15.95;;;;;;;2.87;76.51;100529.52;1650390;86;21214;-45
2020/12/13 10:45:17;;;;;;;22.90;14.55;;;;;;;2.84;76.49;100519.92;1645508;86;21186;-44
2020/12/13 10:47:46;;;;;;;21.55;14.83;;;;;;;2.85;76.48;100525.63;1650874;85;21715;-45
2020/12/13 10:50:13;;;;;;;21.35;12.45;;;;;;;2.85;76.50;100522.09;1625845;85;21183;-44
2020/12/13 10:52:41;;;;;;;21.35;12.88;;;;;;;2.84;76.50;100521.70;1652275;85;21174;-46
2020/12/13 10:55:09;;;;;;;18.15;12.88;;;;;;;2.81;76.52;100521.33;1627437;86;21214;-47
2020/12/13 10:57:38;;;;;;;20.57;14.73;;;;;;;2.84;76.52;100525.19;1646173;86;21512;-46
2020/12/13 11:00:05;;;;;;;17.57;13.05;;;;;;;2.84;76.53;100528.28;1672162;84;21145;-46
2020/12/13 11:02:33;;;;;;;18.42;13.58;;;;;;;2.83;76.55;100527.89;1663624;84;21164;-46
2020/12/13 11:05:01;;;;;;;16.50;11.53;;;;;;;2.81;76.59;100523.50;1642425;85;21176;-48
2020/12/13 11:07:29;;;;;;;18.50;12.15;;;;;;;2.82;76.62;100521.73;1672445;84;21173;-46
2020/12/13 11:09:56;;;;;;;16.45;11.55;;;;;;;2.85;76.78;100523.41;1650311;85;21195;-47
2020/12/13 11:12:24;;;;;;;16.27;11.53;;;;;;;2.87;76.65;100522.93;1628848;86;21137;-45
2020/12/13 11:14:52;;;;;;;18.23;11.88;;;;;;;2.89;76.59;100520.67;1649685;85;21671;-43
2020/12/13 11:17:20;;;;;;;15.18;9.98;;;;;;;2.88;76.55;100520.27;1656652;85;21596;-44
2020/12/13 11:19:48;;;;;;;14.58;11.22;;;;;;;2.88;76.55;100515.46;1649482;85;21164;-45
2020/12/13 11:22:16;;;;;;;17.12;12.50;;;;;;;2.89;76.58;100521.98;1652693;85;21148;-45
2020/12/13 11:24:45;;;;;;;17.73;12.37;;;;;;;2.91;76.59;100524.59;1657352;85;21175;-45
2020/12/13 11:27:12;;;;;;;17.12;12.63;;;;;;;2.91;76.60;100527.22;1652619;85;21176;-44
2020/12/13 11:29:40;;;;;;;16.02;11.10;;;;;;;2.91;76.58;100525.91;1647715;85;21144;-46
2020/12/13 11:32:07;;;;;;;15.43;10.30;;;;;;;2.92;76.57;100523.67;1652513;85;21171;-45
2020/12/13 11:34:35;;;;;;;17.42;10.85;;;;;;;2.92;76.55;100523.22;1617833;86;21200;-45
2020/12/13 11:37:05;;;;;;;16.20;11.83;;;;;;;2.93;76.56;100527.59;1632761;86;21159;-44